sensor_id;sensor_type;location;lat;lon;timestamp;P1;durP1;ratioP1;P2;durP2;ratioP2
71038;SDS011;58692;43.212;27.908;2023-03-23T00:01:32;10.67;;;4.30;;
71038;SDS011;58692;43.212;27.908;2023-03-23T00:04:02;11.23;;;4.45;;
71038;SDS011;58692;43.212;27.908;2023-03-23T00:06:28;8.88;;;4.13;;
71038;SDS011;58692;43.212;27.908;2023-03-23T00:08:59;9.88;;;4.72;;
71038;SDS011;58692;43.212;27.908;2023-03-23T00:11:28;10.13;;;4.38;;
71038;SDS011;58692;43.212;27.908;2023-03-23T00:13:56;11.13;;;4.37;;
71038;SDS011;58692;43.212;27.908;2023-03-23T00:16:23;9.40;;;4.70;;
71038;SDS011;58692;43.212;27.908;2023-03-23T00:18:58;9.35;;;4.47;;
71038;SDS011;58692;43.212;27.908;2023-03-23T00:21:27;12.30;;;4.97;;
71038;SDS011;58692;43.212;27.908;2023-03-23T00:24:01;9.52;;;4.50;;
71038;SDS011;58692;43.212;27.908;2023-03-23T00:26:31;11.03;;;5.23;;
71038;SDS011;58692;43.212;27.908;2023-03-23T00:28:58;10.10;;;4.57;;
71038;SDS011;58692;43.212;27.908;2023-03-23T00:31:25;10.55;;;4.78;;
71038;SDS011;58692;43.212;27.908;2023-03-23T00:33:56;13.38;;;4.65;;
71038;SDS011;58692;43.212;27.908;2023-03-23T00:36:23;12.38;;;4.78;;
71038;SDS011;58692;43.212;27.908;2023-03-23T00:38:49;12.13;;;4.70;;
71038;SDS011;58692;43.212;27.908;2023-03-23T00:41:15;10.98;;;4.93;;
71038;SDS011;58692;43.212;27.908;2023-03-23T00:43:40;11.00;;;5.20;;
71038;SDS011;58692;43.212;27.908;2023-03-23T00:46:06;13.60;;;5.75;;
71038;SDS011;58692;43.212;27.908;2023-03-23T00:48:35;9.88;;;4.43;;
71038;SDS011;58692;43.212;27.908;2023-03-23T00:51:02;10.73;;;4.70;;
71038;SDS011;58692;43.212;27.908;2023-03-23T00:53:31;9.98;;;4.10;;
71038;SDS011;58692;43.212;27.908;2023-03-23T00:55:57;14.68;;;4.95;;
71038;SDS011;58692;43.212;27.908;2023-03-23T00:58:23;9.07;;;4.67;;
71038;SDS011;58692;43.212;27.908;2023-03-23T01:00:49;10.45;;;4.70;;
71038;SDS011;58692;43.212;27.908;2023-03-23T01:03:15;9.70;;;4.75;;
71038;SDS011;58692;43.212;27.908;2023-03-23T01:05:44;10.40;;;4.87;;
71038;SDS011;58692;43.212;27.908;2023-03-23T01:08:12;9.55;;;4.60;;
71038;SDS011;58692;43.212;27.908;2023-03-23T01:10:39;10.68;;;4.75;;
71038;SDS011;58692;43.212;27.908;2023-03-23T01:13:05;10.02;;;4.65;;
71038;SDS011;58692;43.212;27.908;2023-03-23T01:15:31;10.48;;;4.55;;
71038;SDS011;58692;43.212;27.908;2023-03-23T01:17:57;9.70;;;4.73;;
71038;SDS011;58692;43.212;27.908;2023-03-23T01:20:23;10.65;;;4.80;;
71038;SDS011;58692;43.212;27.908;2023-03-23T01:22:51;9.88;;;5.07;;
71038;SDS011;58692;43.212;27.908;2023-03-23T01:25:18;11.38;;;4.68;;
71038;SDS011;58692;43.212;27.908;2023-03-23T01:27:44;12.03;;;5.10;;
71038;SDS011;58692;43.212;27.908;2023-03-23T01:30:10;11.13;;;5.70;;
71038;SDS011;58692;43.212;27.908;2023-03-23T01:32:37;10.97;;;5.53;;
71038;SDS011;58692;43.212;27.908;2023-03-23T01:35:03;12.25;;;5.85;;
71038;SDS011;58692;43.212;27.908;2023-03-23T01:37:29;12.27;;;5.68;;
71038;SDS011;58692;43.212;27.908;2023-03-23T01:39:55;13.65;;;6.30;;
71038;SDS011;58692;43.212;27.908;2023-03-23T01:42:23;14.55;;;7.05;;
71038;SDS011;58692;43.212;27.908;2023-03-23T01:47:15;15.90;;;7.78;;
71038;SDS011;58692;43.212;27.908;2023-03-23T01:49:48;17.47;;;8.10;;
71038;SDS011;58692;43.212;27.908;2023-03-23T01:52:17;16.70;;;8.45;;
71038;SDS011;58692;43.212;27.908;2023-03-23T01:54:48;17.90;;;8.63;;
71038;SDS011;58692;43.212;27.908;2023-03-23T01:57:15;17.38;;;8.75;;
71038;SDS011;58692;43.212;27.908;2023-03-23T01:59:44;17.10;;;8.60;;
71038;SDS011;58692;43.212;27.908;2023-03-23T02:02:12;18.07;;;9.10;;
71038;SDS011;58692;43.212;27.908;2023-03-23T02:04:40;20.75;;;9.82;;
71038;SDS011;58692;43.212;27.908;2023-03-23T02:07:06;25.00;;;11.07;;
71038;SDS011;58692;43.212;27.908;2023-03-23T02:09:32;25.25;;;11.57;;
71038;SDS011;58692;43.212;27.908;2023-03-23T02:11:58;27.67;;;12.10;;
71038;SDS011;58692;43.212;27.908;2023-03-23T02:14:24;24.75;;;11.23;;
71038;SDS011;58692;43.212;27.908;2023-03-23T02:16:55;26.30;;;12.07;;
71038;SDS011;58692;43.212;27.908;2023-03-23T02:22:12;20.55;;;9.85;;
71038;SDS011;58692;43.212;27.908;2023-03-23T02:28:12;21.60;;;10.25;;
71038;SDS011;58692;43.212;27.908;2023-03-23T02:33:56;21.67;;;10.15;;
71038;SDS011;58692;43.212;27.908;2023-03-23T02:39:02;20.42;;;9.48;;
71038;SDS011;58692;43.212;27.908;2023-03-23T02:41:36;22.52;;;9.57;;
71038;SDS011;58692;43.212;27.908;2023-03-23T02:44:07;21.17;;;9.13;;
71038;SDS011;58692;43.212;27.908;2023-03-23T02:46:35;20.33;;;9.02;;
71038;SDS011;58692;43.212;27.908;2023-03-23T02:49:01;20.98;;;9.25;;
71038;SDS011;58692;43.212;27.908;2023-03-23T02:51:29;22.38;;;9.00;;
71038;SDS011;58692;43.212;27.908;2023-03-23T02:53:55;19.33;;;8.68;;
71038;SDS011;58692;43.212;27.908;2023-03-23T02:56:23;21.93;;;9.37;;
71038;SDS011;58692;43.212;27.908;2023-03-23T02:58:52;19.67;;;8.45;;
71038;SDS011;58692;43.212;27.908;2023-03-23T03:01:46;22.85;;;9.45;;
71038;SDS011;58692;43.212;27.908;2023-03-23T03:04:12;22.52;;;9.88;;
71038;SDS011;58692;43.212;27.908;2023-03-23T03:06:47;22.05;;;10.60;;
71038;SDS011;58692;43.212;27.908;2023-03-23T03:12:16;32.92;;;13.48;;
71038;SDS011;58692;43.212;27.908;2023-03-23T03:14:57;31.65;;;14.40;;
71038;SDS011;58692;43.212;27.908;2023-03-23T03:17:31;31.45;;;13.73;;
71038;SDS011;58692;43.212;27.908;2023-03-23T03:19:59;33.85;;;14.02;;
71038;SDS011;58692;43.212;27.908;2023-03-23T03:22:33;35.63;;;15.90;;
71038;SDS011;58692;43.212;27.908;2023-03-23T03:25:02;31.65;;;14.45;;
71038;SDS011;58692;43.212;27.908;2023-03-23T03:27:29;32.40;;;14.05;;
71038;SDS011;58692;43.212;27.908;2023-03-23T03:29:57;34.65;;;15.02;;
71038;SDS011;58692;43.212;27.908;2023-03-23T03:32:29;34.08;;;13.85;;
71038;SDS011;58692;43.212;27.908;2023-03-23T03:35:01;33.03;;;13.83;;
71038;SDS011;58692;43.212;27.908;2023-03-23T03:37:33;28.33;;;11.95;;
71038;SDS011;58692;43.212;27.908;2023-03-23T03:40:03;25.92;;;11.40;;
71038;SDS011;58692;43.212;27.908;2023-03-23T03:42:36;21.95;;;10.77;;
71038;SDS011;58692;43.212;27.908;2023-03-23T03:45:02;25.33;;;10.73;;
71038;SDS011;58692;43.212;27.908;2023-03-23T03:47:28;24.50;;;10.20;;
71038;SDS011;58692;43.212;27.908;2023-03-23T03:49:54;25.90;;;11.40;;
71038;SDS011;58692;43.212;27.908;2023-03-23T03:52:19;27.63;;;12.23;;
71038;SDS011;58692;43.212;27.908;2023-03-23T03:54:45;25.45;;;11.05;;
71038;SDS011;58692;43.212;27.908;2023-03-23T03:57:11;23.43;;;10.70;;
71038;SDS011;58692;43.212;27.908;2023-03-23T03:59:37;23.67;;;10.50;;
71038;SDS011;58692;43.212;27.908;2023-03-23T04:02:02;26.53;;;10.47;;
71038;SDS011;58692;43.212;27.908;2023-03-23T04:04:28;28.08;;;11.00;;
71038;SDS011;58692;43.212;27.908;2023-03-23T04:06:54;33.50;;;12.63;;
71038;SDS011;58692;43.212;27.908;2023-03-23T04:09:20;34.75;;;14.43;;
71038;SDS011;58692;43.212;27.908;2023-03-23T04:11:46;30.20;;;13.35;;
71038;SDS011;58692;43.212;27.908;2023-03-23T04:14:12;38.33;;;15.00;;
71038;SDS011;58692;43.212;27.908;2023-03-23T04:16:37;65.70;;;23.63;;
71038;SDS011;58692;43.212;27.908;2023-03-23T04:19:03;57.25;;;24.23;;
71038;SDS011;58692;43.212;27.908;2023-03-23T04:21:28;55.40;;;24.10;;
71038;SDS011;58692;43.212;27.908;2023-03-23T04:23:55;49.70;;;22.50;;
71038;SDS011;58692;43.212;27.908;2023-03-23T04:26:25;40.80;;;17.38;;
71038;SDS011;58692;43.212;27.908;2023-03-23T04:28:53;38.28;;;15.32;;
71038;SDS011;58692;43.212;27.908;2023-03-23T04:31:20;36.87;;;16.40;;
71038;SDS011;58692;43.212;27.908;2023-03-23T04:33:45;34.47;;;15.50;;
71038;SDS011;58692;43.212;27.908;2023-03-23T04:36:11;35.75;;;15.35;;
71038;SDS011;58692;43.212;27.908;2023-03-23T04:38:41;33.67;;;15.17;;
71038;SDS011;58692;43.212;27.908;2023-03-23T04:41:07;35.33;;;15.98;;
71038;SDS011;58692;43.212;27.908;2023-03-23T04:43:33;34.35;;;16.25;;
71038;SDS011;58692;43.212;27.908;2023-03-23T04:46:06;34.53;;;16.60;;
71038;SDS011;58692;43.212;27.908;2023-03-23T04:48:33;27.48;;;12.98;;
71038;SDS011;58692;43.212;27.908;2023-03-23T04:51:01;29.50;;;13.23;;
71038;SDS011;58692;43.212;27.908;2023-03-23T04:53:30;27.08;;;12.77;;
71038;SDS011;58692;43.212;27.908;2023-03-23T04:55:56;25.25;;;13.35;;
71038;SDS011;58692;43.212;27.908;2023-03-23T04:58:22;23.33;;;11.57;;
71038;SDS011;58692;43.212;27.908;2023-03-23T05:00:49;24.77;;;12.07;;
71038;SDS011;58692;43.212;27.908;2023-03-23T05:03:16;23.35;;;11.30;;
71038;SDS011;58692;43.212;27.908;2023-03-23T05:05:43;23.27;;;11.20;;
71038;SDS011;58692;43.212;27.908;2023-03-23T05:08:12;23.30;;;10.80;;
71038;SDS011;58692;43.212;27.908;2023-03-23T05:10:38;24.88;;;12.20;;
71038;SDS011;58692;43.212;27.908;2023-03-23T05:13:04;26.70;;;13.25;;
71038;SDS011;58692;43.212;27.908;2023-03-23T05:15:29;21.63;;;11.87;;
71038;SDS011;58692;43.212;27.908;2023-03-23T05:17:55;24.87;;;11.80;;
71038;SDS011;58692;43.212;27.908;2023-03-23T05:20:21;25.03;;;12.60;;
71038;SDS011;58692;43.212;27.908;2023-03-23T05:22:47;27.55;;;13.18;;
71038;SDS011;58692;43.212;27.908;2023-03-23T05:25:15;22.05;;;11.27;;
71038;SDS011;58692;43.212;27.908;2023-03-23T05:27:44;24.83;;;13.00;;
71038;SDS011;58692;43.212;27.908;2023-03-23T05:30:15;25.38;;;14.07;;
71038;SDS011;58692;43.212;27.908;2023-03-23T05:32:44;35.17;;;19.35;;
71038;SDS011;58692;43.212;27.908;2023-03-23T05:35:10;51.20;;;28.50;;
71038;SDS011;58692;43.212;27.908;2023-03-23T05:37:37;75.77;;;45.60;;
71038;SDS011;58692;43.212;27.908;2023-03-23T05:40:03;77.57;;;46.78;;
71038;SDS011;58692;43.212;27.908;2023-03-23T05:42:32;80.32;;;47.58;;
71038;SDS011;58692;43.212;27.908;2023-03-23T05:44:59;71.70;;;41.60;;
71038;SDS011;58692;43.212;27.908;2023-03-23T05:47:28;44.22;;;26.80;;
71038;SDS011;58692;43.212;27.908;2023-03-23T05:49:55;36.60;;;21.50;;
71038;SDS011;58692;43.212;27.908;2023-03-23T05:52:21;32.10;;;19.30;;
71038;SDS011;58692;43.212;27.908;2023-03-23T05:54:48;29.45;;;16.63;;
71038;SDS011;58692;43.212;27.908;2023-03-23T05:57:28;29.13;;;16.13;;
71038;SDS011;58692;43.212;27.908;2023-03-23T05:59:53;29.90;;;15.30;;
71038;SDS011;58692;43.212;27.908;2023-03-23T06:02:25;28.38;;;14.20;;
71038;SDS011;58692;43.212;27.908;2023-03-23T06:05:00;25.58;;;13.07;;
71038;SDS011;58692;43.212;27.908;2023-03-23T06:07:25;26.57;;;14.07;;
71038;SDS011;58692;43.212;27.908;2023-03-23T06:09:52;26.73;;;12.90;;
71038;SDS011;58692;43.212;27.908;2023-03-23T06:12:18;25.10;;;12.47;;
71038;SDS011;58692;43.212;27.908;2023-03-23T06:15:00;23.42;;;12.35;;
71038;SDS011;58692;43.212;27.908;2023-03-23T06:17:46;25.85;;;13.15;;
71038;SDS011;58692;43.212;27.908;2023-03-23T06:20:12;28.95;;;15.90;;
71038;SDS011;58692;43.212;27.908;2023-03-23T06:22:38;33.70;;;20.00;;
71038;SDS011;58692;43.212;27.908;2023-03-23T06:25:06;33.17;;;18.83;;
71038;SDS011;58692;43.212;27.908;2023-03-23T06:27:38;27.10;;;15.57;;
71038;SDS011;58692;43.212;27.908;2023-03-23T06:30:04;23.75;;;14.05;;
71038;SDS011;58692;43.212;27.908;2023-03-23T06:32:31;18.37;;;10.90;;
71038;SDS011;58692;43.212;27.908;2023-03-23T06:34:57;18.30;;;9.65;;
71038;SDS011;58692;43.212;27.908;2023-03-23T06:37:24;18.65;;;9.32;;
71038;SDS011;58692;43.212;27.908;2023-03-23T06:39:50;17.50;;;9.23;;
71038;SDS011;58692;43.212;27.908;2023-03-23T06:42:16;17.47;;;9.20;;
71038;SDS011;58692;43.212;27.908;2023-03-23T06:44:43;17.17;;;9.52;;
71038;SDS011;58692;43.212;27.908;2023-03-23T06:47:08;17.77;;;9.93;;
71038;SDS011;58692;43.212;27.908;2023-03-23T06:49:34;18.23;;;10.33;;
71038;SDS011;58692;43.212;27.908;2023-03-23T06:52:00;22.10;;;10.55;;
71038;SDS011;58692;43.212;27.908;2023-03-23T06:54:28;16.50;;;9.23;;
71038;SDS011;58692;43.212;27.908;2023-03-23T06:56:54;16.90;;;8.93;;
71038;SDS011;58692;43.212;27.908;2023-03-23T06:59:20;16.58;;;8.88;;
71038;SDS011;58692;43.212;27.908;2023-03-23T07:01:45;16.98;;;9.88;;
71038;SDS011;58692;43.212;27.908;2023-03-23T07:04:14;22.57;;;10.53;;
71038;SDS011;58692;43.212;27.908;2023-03-23T07:06:41;22.38;;;10.65;;
71038;SDS011;58692;43.212;27.908;2023-03-23T07:09:09;19.67;;;10.57;;
71038;SDS011;58692;43.212;27.908;2023-03-23T07:11:34;23.70;;;12.17;;
71038;SDS011;58692;43.212;27.908;2023-03-23T07:14:01;19.30;;;11.18;;
71038;SDS011;58692;43.212;27.908;2023-03-23T07:16:26;21.45;;;13.18;;
71038;SDS011;58692;43.212;27.908;2023-03-23T07:18:52;19.48;;;11.70;;
71038;SDS011;58692;43.212;27.908;2023-03-23T07:21:18;20.80;;;11.97;;
71038;SDS011;58692;43.212;27.908;2023-03-23T07:23:43;23.27;;;13.67;;
71038;SDS011;58692;43.212;27.908;2023-03-23T07:26:11;20.30;;;10.80;;
71038;SDS011;58692;43.212;27.908;2023-03-23T07:28:40;15.52;;;8.80;;
71038;SDS011;58692;43.212;27.908;2023-03-23T07:31:07;16.65;;;9.30;;
71038;SDS011;58692;43.212;27.908;2023-03-23T07:33:35;15.73;;;8.60;;
71038;SDS011;58692;43.212;27.908;2023-03-23T07:36:01;18.35;;;9.40;;
71038;SDS011;58692;43.212;27.908;2023-03-23T07:38:35;17.33;;;10.10;;
71038;SDS011;58692;43.212;27.908;2023-03-23T07:41:03;17.07;;;9.40;;
71038;SDS011;58692;43.212;27.908;2023-03-23T07:43:30;18.38;;;10.02;;
71038;SDS011;58692;43.212;27.908;2023-03-23T07:45:55;16.58;;;9.38;;
71038;SDS011;58692;43.212;27.908;2023-03-23T07:48:21;16.17;;;8.93;;
71038;SDS011;58692;43.212;27.908;2023-03-23T07:50:47;16.47;;;8.50;;
71038;SDS011;58692;43.212;27.908;2023-03-23T07:53:13;16.83;;;8.77;;
71038;SDS011;58692;43.212;27.908;2023-03-23T07:55:38;14.52;;;8.35;;
71038;SDS011;58692;43.212;27.908;2023-03-23T07:58:04;16.30;;;8.40;;
71038;SDS011;58692;43.212;27.908;2023-03-23T08:00:30;14.00;;;8.32;;
71038;SDS011;58692;43.212;27.908;2023-03-23T08:02:58;14.70;;;8.43;;
71038;SDS011;58692;43.212;27.908;2023-03-23T08:05:30;15.30;;;7.77;;
71038;SDS011;58692;43.212;27.908;2023-03-23T08:07:57;14.75;;;7.93;;
71038;SDS011;58692;43.212;27.908;2023-03-23T08:10:23;15.00;;;7.93;;
71038;SDS011;58692;43.212;27.908;2023-03-23T08:12:51;14.95;;;8.05;;
71038;SDS011;58692;43.212;27.908;2023-03-23T08:15:39;14.52;;;7.57;;
71038;SDS011;58692;43.212;27.908;2023-03-23T08:18:11;15.83;;;7.90;;
71038;SDS011;58692;43.212;27.908;2023-03-23T08:20:41;13.98;;;8.02;;
71038;SDS011;58692;43.212;27.908;2023-03-23T08:23:10;16.38;;;8.43;;
71038;SDS011;58692;43.212;27.908;2023-03-23T08:25:37;16.42;;;8.40;;
71038;SDS011;58692;43.212;27.908;2023-03-23T08:28:03;14.90;;;8.53;;
71038;SDS011;58692;43.212;27.908;2023-03-23T08:30:42;18.45;;;9.75;;
71038;SDS011;58692;43.212;27.908;2023-03-23T08:33:08;16.83;;;8.85;;
71038;SDS011;58692;43.212;27.908;2023-03-23T08:35:37;15.95;;;9.20;;
71038;SDS011;58692;43.212;27.908;2023-03-23T08:38:07;14.30;;;7.87;;
71038;SDS011;58692;43.212;27.908;2023-03-23T08:40:46;16.77;;;8.20;;
71038;SDS011;58692;43.212;27.908;2023-03-23T08:43:25;18.02;;;9.45;;
71038;SDS011;58692;43.212;27.908;2023-03-23T08:45:59;16.63;;;9.13;;
71038;SDS011;58692;43.212;27.908;2023-03-23T08:48:25;15.68;;;8.70;;
71038;SDS011;58692;43.212;27.908;2023-03-23T08:50:51;15.73;;;8.63;;
71038;SDS011;58692;43.212;27.908;2023-03-23T08:53:17;17.08;;;8.95;;
71038;SDS011;58692;43.212;27.908;2023-03-23T08:56:03;15.75;;;8.05;;
71038;SDS011;58692;43.212;27.908;2023-03-23T08:58:34;16.63;;;9.35;;
71038;SDS011;58692;43.212;27.908;2023-03-23T09:01:00;18.20;;;9.80;;
71038;SDS011;58692;43.212;27.908;2023-03-23T09:03:27;17.05;;;8.52;;
71038;SDS011;58692;43.212;27.908;2023-03-23T09:05:53;17.27;;;9.63;;
71038;SDS011;58692;43.212;27.908;2023-03-23T09:08:24;17.45;;;8.63;;
71038;SDS011;58692;43.212;27.908;2023-03-23T09:10:51;15.80;;;8.98;;
71038;SDS011;58692;43.212;27.908;2023-03-23T09:13:16;18.23;;;10.00;;
71038;SDS011;58692;43.212;27.908;2023-03-23T09:16:00;17.97;;;9.80;;
71038;SDS011;58692;43.212;27.908;2023-03-23T09:18:29;19.13;;;10.32;;
71038;SDS011;58692;43.212;27.908;2023-03-23T09:20:57;16.90;;;9.02;;
71038;SDS011;58692;43.212;27.908;2023-03-23T09:26:37;17.00;;;8.85;;
71038;SDS011;58692;43.212;27.908;2023-03-23T09:29:12;21.37;;;10.50;;
71038;SDS011;58692;43.212;27.908;2023-03-23T09:32:11;18.70;;;10.02;;
71038;SDS011;58692;43.212;27.908;2023-03-23T09:34:38;17.77;;;9.30;;
71038;SDS011;58692;43.212;27.908;2023-03-23T09:40:28;17.75;;;8.70;;
71038;SDS011;58692;43.212;27.908;2023-03-23T09:51:22;21.05;;;9.63;;
71038;SDS011;58692;43.212;27.908;2023-03-23T09:53:52;21.05;;;10.80;;
71038;SDS011;58692;43.212;27.908;2023-03-23T09:56:22;15.83;;;8.90;;
71038;SDS011;58692;43.212;27.908;2023-03-23T09:58:54;23.95;;;9.45;;
71038;SDS011;58692;43.212;27.908;2023-03-23T10:01:26;17.73;;;8.65;;
71038;SDS011;58692;43.212;27.908;2023-03-23T10:03:59;16.67;;;9.00;;
71038;SDS011;58692;43.212;27.908;2023-03-23T10:06:37;15.52;;;8.32;;
71038;SDS011;58692;43.212;27.908;2023-03-23T10:09:04;16.73;;;8.90;;
71038;SDS011;58692;43.212;27.908;2023-03-23T10:14:11;16.77;;;9.13;;
71038;SDS011;58692;43.212;27.908;2023-03-23T10:19:33;18.38;;;9.18;;
71038;SDS011;58692;43.212;27.908;2023-03-23T10:22:14;18.60;;;8.50;;
71038;SDS011;58692;43.212;27.908;2023-03-23T10:24:49;15.82;;;8.38;;
71038;SDS011;58692;43.212;27.908;2023-03-23T10:27:25;18.40;;;8.77;;
71038;SDS011;58692;43.212;27.908;2023-03-23T10:30:02;16.77;;;8.10;;
71038;SDS011;58692;43.212;27.908;2023-03-23T10:32:46;17.73;;;9.43;;
71038;SDS011;58692;43.212;27.908;2023-03-23T10:35:18;18.07;;;9.43;;
71038;SDS011;58692;43.212;27.908;2023-03-23T10:37:48;25.52;;;9.90;;
71038;SDS011;58692;43.212;27.908;2023-03-23T10:40:21;17.65;;;9.40;;
71038;SDS011;58692;43.212;27.908;2023-03-23T10:42:51;19.42;;;9.50;;
71038;SDS011;58692;43.212;27.908;2023-03-23T10:45:19;20.08;;;8.90;;
71038;SDS011;58692;43.212;27.908;2023-03-23T10:47:52;16.67;;;8.03;;
71038;SDS011;58692;43.212;27.908;2023-03-23T10:50:23;21.10;;;9.55;;
71038;SDS011;58692;43.212;27.908;2023-03-23T10:52:54;16.60;;;8.50;;
71038;SDS011;58692;43.212;27.908;2023-03-23T10:55:23;17.58;;;8.05;;
71038;SDS011;58692;43.212;27.908;2023-03-23T10:58:04;18.05;;;8.52;;
71038;SDS011;58692;43.212;27.908;2023-03-23T11:00:32;16.00;;;7.67;;
71038;SDS011;58692;43.212;27.908;2023-03-23T11:03:00;16.52;;;7.30;;
71038;SDS011;58692;43.212;27.908;2023-03-23T11:05:53;17.40;;;7.90;;
71038;SDS011;58692;43.212;27.908;2023-03-23T11:08:31;17.50;;;7.95;;
71038;SDS011;58692;43.212;27.908;2023-03-23T11:11:15;17.55;;;8.38;;
71038;SDS011;58692;43.212;27.908;2023-03-23T11:13:45;16.67;;;8.33;;
71038;SDS011;58692;43.212;27.908;2023-03-23T11:18:57;16.60;;;7.68;;
71038;SDS011;58692;43.212;27.908;2023-03-23T11:21:23;18.90;;;8.60;;
71038;SDS011;58692;43.212;27.908;2023-03-23T11:23:55;14.60;;;7.65;;
71038;SDS011;58692;43.212;27.908;2023-03-23T11:26:28;15.13;;;7.40;;
71038;SDS011;58692;43.212;27.908;2023-03-23T11:31:28;19.67;;;9.23;;
71038;SDS011;58692;43.212;27.908;2023-03-23T11:34:14;18.35;;;9.38;;
71038;SDS011;58692;43.212;27.908;2023-03-23T11:36:53;16.73;;;8.45;;
71038;SDS011;58692;43.212;27.908;2023-03-23T11:53:42;14.30;;;7.50;;
71038;SDS011;58692;43.212;27.908;2023-03-23T11:56:30;14.43;;;7.28;;
71038;SDS011;58692;43.212;27.908;2023-03-23T11:59:01;16.17;;;7.53;;
71038;SDS011;58692;43.212;27.908;2023-03-23T12:06:58;13.87;;;6.67;;
71038;SDS011;58692;43.212;27.908;2023-03-23T12:17:56;14.45;;;6.90;;
71038;SDS011;58692;43.212;27.908;2023-03-23T12:20:53;14.40;;;6.17;;
71038;SDS011;58692;43.212;27.908;2023-03-23T12:31:37;14.05;;;6.80;;
71038;SDS011;58692;43.212;27.908;2023-03-23T12:42:13;14.32;;;6.80;;
71038;SDS011;58692;43.212;27.908;2023-03-23T12:44:48;14.55;;;7.28;;
71038;SDS011;58692;43.212;27.908;2023-03-23T12:47:25;16.67;;;7.47;;
71038;SDS011;58692;43.212;27.908;2023-03-23T12:50:02;16.45;;;6.88;;
71038;SDS011;58692;43.212;27.908;2023-03-23T12:55:21;16.25;;;7.28;;
71038;SDS011;58692;43.212;27.908;2023-03-23T12:57:57;14.65;;;6.85;;
71038;SDS011;58692;43.212;27.908;2023-03-23T13:00:29;14.57;;;6.60;;
71038;SDS011;58692;43.212;27.908;2023-03-23T13:03:02;13.10;;;6.47;;
71038;SDS011;58692;43.212;27.908;2023-03-23T13:05:36;13.45;;;5.80;;
71038;SDS011;58692;43.212;27.908;2023-03-23T13:08:11;14.27;;;6.97;;
71038;SDS011;58692;43.212;27.908;2023-03-23T13:10:46;11.20;;;6.32;;
71038;SDS011;58692;43.212;27.908;2023-03-23T13:13:19;12.90;;;6.70;;
71038;SDS011;58692;43.212;27.908;2023-03-23T13:21:31;11.32;;;5.45;;
71038;SDS011;58692;43.212;27.908;2023-03-23T13:24:03;10.10;;;4.55;;
71038;SDS011;58692;43.212;27.908;2023-03-23T13:26:31;8.97;;;4.43;;
71038;SDS011;58692;43.212;27.908;2023-03-23T13:29:06;10.40;;;5.00;;
71038;SDS011;58692;43.212;27.908;2023-03-23T13:31:38;12.65;;;5.80;;
71038;SDS011;58692;43.212;27.908;2023-03-23T13:34:10;13.07;;;5.90;;
71038;SDS011;58692;43.212;27.908;2023-03-23T13:36:39;13.32;;;5.88;;
71038;SDS011;58692;43.212;27.908;2023-03-23T13:39:17;11.20;;;5.30;;
71038;SDS011;58692;43.212;27.908;2023-03-23T13:41:47;15.15;;;5.72;;
71038;SDS011;58692;43.212;27.908;2023-03-23T13:44:16;12.32;;;5.95;;
71038;SDS011;58692;43.212;27.908;2023-03-23T13:49:46;17.83;;;6.28;;
71038;SDS011;58692;43.212;27.908;2023-03-23T13:52:18;13.83;;;6.00;;
71038;SDS011;58692;43.212;27.908;2023-03-23T13:54:47;11.82;;;5.60;;
71038;SDS011;58692;43.212;27.908;2023-03-23T13:59:58;12.48;;;6.60;;
71038;SDS011;58692;43.212;27.908;2023-03-23T14:02:34;16.20;;;6.32;;
71038;SDS011;58692;43.212;27.908;2023-03-23T14:05:32;15.07;;;6.30;;
71038;SDS011;58692;43.212;27.908;2023-03-23T14:07:51;16.80;;;6.30;;
71038;SDS011;58692;43.212;27.908;2023-03-23T14:10:18;18.23;;;6.60;;
71038;SDS011;58692;43.212;27.908;2023-03-23T14:12:48;16.23;;;5.97;;
71038;SDS011;58692;43.212;27.908;2023-03-23T14:15:17;12.52;;;6.00;;
71038;SDS011;58692;43.212;27.908;2023-03-23T14:17:43;11.37;;;5.90;;
71038;SDS011;58692;43.212;27.908;2023-03-23T14:22:55;14.43;;;6.45;;
71038;SDS011;58692;43.212;27.908;2023-03-23T14:25:21;16.23;;;6.80;;
71038;SDS011;58692;43.212;27.908;2023-03-23T14:27:51;12.13;;;5.90;;
71038;SDS011;58692;43.212;27.908;2023-03-23T14:30:20;13.52;;;6.07;;
71038;SDS011;58692;43.212;27.908;2023-03-23T14:32:47;13.63;;;5.85;;
71038;SDS011;58692;43.212;27.908;2023-03-23T14:35:27;16.27;;;6.60;;
71038;SDS011;58692;43.212;27.908;2023-03-23T14:37:56;12.85;;;6.13;;
71038;SDS011;58692;43.212;27.908;2023-03-23T14:40:27;16.10;;;6.63;;
71038;SDS011;58692;43.212;27.908;2023-03-23T14:42:54;14.32;;;6.80;;
71038;SDS011;58692;43.212;27.908;2023-03-23T14:45:21;13.25;;;6.57;;
71038;SDS011;58692;43.212;27.908;2023-03-23T14:47:49;13.98;;;6.65;;
71038;SDS011;58692;43.212;27.908;2023-03-23T14:50:24;16.58;;;7.22;;
71038;SDS011;58692;43.212;27.908;2023-03-23T14:52:57;14.17;;;7.00;;
71038;SDS011;58692;43.212;27.908;2023-03-23T14:55:24;13.85;;;7.13;;
71038;SDS011;58692;43.212;27.908;2023-03-23T14:57:53;14.23;;;6.75;;
71038;SDS011;58692;43.212;27.908;2023-03-23T15:00:22;13.93;;;7.10;;
71038;SDS011;58692;43.212;27.908;2023-03-23T15:02:53;15.13;;;7.32;;
71038;SDS011;58692;43.212;27.908;2023-03-23T15:05:25;13.43;;;6.97;;
71038;SDS011;58692;43.212;27.908;2023-03-23T15:07:54;15.85;;;7.78;;
71038;SDS011;58692;43.212;27.908;2023-03-23T15:10:24;16.90;;;7.45;;
71038;SDS011;58692;43.212;27.908;2023-03-23T15:12:50;14.10;;;7.40;;
71038;SDS011;58692;43.212;27.908;2023-03-23T15:15:24;19.40;;;7.60;;
71038;SDS011;58692;43.212;27.908;2023-03-23T15:17:55;15.48;;;7.35;;
71038;SDS011;58692;43.212;27.908;2023-03-23T15:20:23;14.20;;;7.30;;
71038;SDS011;58692;43.212;27.908;2023-03-23T15:22:49;15.32;;;6.82;;
71038;SDS011;58692;43.212;27.908;2023-03-23T15:25:18;15.07;;;6.83;;
71038;SDS011;58692;43.212;27.908;2023-03-23T15:27:56;14.75;;;7.40;;
71038;SDS011;58692;43.212;27.908;2023-03-23T15:30:33;14.00;;;6.97;;
71038;SDS011;58692;43.212;27.908;2023-03-23T15:33:02;15.68;;;6.93;;
71038;SDS011;58692;43.212;27.908;2023-03-23T15:35:34;13.43;;;6.65;;
71038;SDS011;58692;43.212;27.908;2023-03-23T15:38:03;12.47;;;6.27;;
71038;SDS011;58692;43.212;27.908;2023-03-23T15:40:35;18.63;;;7.30;;
71038;SDS011;58692;43.212;27.908;2023-03-23T15:48:30;15.18;;;7.25;;
71038;SDS011;58692;43.212;27.908;2023-03-23T15:51:01;16.83;;;7.37;;
71038;SDS011;58692;43.212;27.908;2023-03-23T15:53:30;15.77;;;7.35;;
71038;SDS011;58692;43.212;27.908;2023-03-23T15:56:00;15.30;;;6.93;;
71038;SDS011;58692;43.212;27.908;2023-03-23T15:58:27;13.75;;;6.93;;
71038;SDS011;58692;43.212;27.908;2023-03-23T16:00:53;16.80;;;6.97;;
71038;SDS011;58692;43.212;27.908;2023-03-23T16:03:22;22.07;;;7.97;;
71038;SDS011;58692;43.212;27.908;2023-03-23T16:05:51;22.13;;;8.20;;
71038;SDS011;58692;43.212;27.908;2023-03-23T16:08:18;19.65;;;8.50;;
71038;SDS011;58692;43.212;27.908;2023-03-23T16:10:44;20.03;;;8.60;;
71038;SDS011;58692;43.212;27.908;2023-03-23T16:13:10;19.73;;;9.07;;
71038;SDS011;58692;43.212;27.908;2023-03-23T16:15:35;16.83;;;7.73;;
71038;SDS011;58692;43.212;27.908;2023-03-23T16:18:01;18.95;;;8.70;;
71038;SDS011;58692;43.212;27.908;2023-03-23T16:20:27;17.90;;;7.33;;
71038;SDS011;58692;43.212;27.908;2023-03-23T16:22:54;18.90;;;8.23;;